Saronville, Nebraska
Current Conditions -  °F | °C
As of 4:15 PM on Sunday 23 Nov 2014 (Local Time) from KAUH Reporting Station
Clear Clear  
Wind Chill: 36°   Ceiling: Unl
Heat Index: 43°   Visibility: 10mi
Dew Point: 32°   Wind: 16mph
Humidity: 64%   Direction: 350°N
Pressure: 29.57"   Gusts: 23mph
Location:  40.6°N, 97.94°W
Report Text: KAUH 232215Z AUTO 35014G20KT 10SM CLR 06/00 A2957 RMK AO2 T00621001
Loading
Personal Weather Stations






























Interactive Weather Map New forecast layout! Learn more

10-Day Weather Forecast

Advertisements
Track Severe Weather on mobile